Time;durP1;ratioP1;P1;durP2;ratioP2;P2;SDS_P1;SDS_P2;PMS_P1;PMS_P2;Temp;Humidity;BMP_temperature;BMP_pressure;BME280_temperature;BME280_humidity;BME280_pressure;Samples;Min_cycle;Max_cycle;Signal;HPM_P1;HPM_P2
2023/06/27 00:00:05;;;;;;;;;;;;;;;13.72;100.00;101965.94;4991328;28;19964;-75
2023/06/27 00:02:30;;;;;;;;;;;;;;;13.71;100.00;101966.91;4992564;28;19963;-75
2023/06/27 00:04:56;;;;;;;;;;;;;;;13.69;100.00;101972.41;5000083;28;19921;-75
2023/06/27 00:07:27;;;;;;;;;;;;;;;13.70;100.00;101966.03;4994423;28;20305;-75
2023/06/27 00:09:53;;;;;;;;;;;;;;;13.76;100.00;101972.84;4989088;28;19921;-75
2023/06/27 00:12:18;;;;;;;;;;;;;;;13.85;100.00;101974.84;4990602;28;20375;-75
2023/06/27 00:14:44;;;;;;;;;;;;;;;13.90;100.00;101969.97;5002962;28;20351;-75
2023/06/27 00:17:12;;;;;;;;;;;;;;;13.95;100.00;101969.63;4989118;28;19980;-75
2023/06/27 00:19:37;;;;;;;;;;;;;;;13.91;100.00;101965.44;4989097;28;20253;-75
2023/06/27 00:22:09;;;;;;;;;;;;;;;13.86;100.00;101965.78;4990263;28;20510;-75
2023/06/27 00:24:34;;;;;;;;;;;;;;;13.84;100.00;101962.34;4986311;28;20024;-75
2023/06/27 00:26:59;;;;;;;;;;;;;;;13.86;100.00;101959.53;5004160;28;19998;-75
2023/06/27 00:29:26;;;;;;;;;;;;;;;13.88;100.00;101961.13;4988537;28;20319;-75
2023/06/27 00:31:51;;;;;;;;;;;;;;;13.93;100.00;101960.78;4990253;28;20024;-75
2023/06/27 00:34:16;;;;;;;;;;;;;;;13.99;100.00;101964.88;4988720;28;20770;-75
2023/06/27 00:36:41;;;;;;;;;;;;;;;14.00;100.00;101959.34;4987842;28;20350;-75
2023/06/27 00:39:06;;;;;;;;;;;;;;;14.00;100.00;101961.22;4988369;28;19964;-75
2023/06/27 00:41:32;;;;;;;;;;;;;;;13.90;100.00;101961.88;4993251;28;20016;-75
2023/06/27 00:43:57;;;;;;;;;;;;;;;13.79;100.00;101959.09;4989783;28;19924;-75
2023/06/27 00:46:26;;;;;;;;;;;;;;;13.75;100.00;101960.34;4984883;28;20362;-75
2023/06/27 00:48:51;;;;;;;;;;;;;;;13.72;100.00;101955.16;4989033;28;19929;-75
2023/06/27 00:51:16;;;;;;;;;;;;;;;13.74;100.00;101962.16;4990977;28;19921;-75
2023/06/27 00:53:41;;;;;;;;;;;;;;;13.65;100.00;101944.81;4991747;28;19956;-75
2023/06/27 00:56:07;;;;;;;;;;;;;;;13.76;100.00;101965.59;4997191;28;20012;-75
2023/06/27 00:58:32;;;;;;;;;;;;;;;13.76;100.00;101971.00;4993836;28;19928;-75
2023/06/27 01:01:00;;;;;;;;;;;;;;;13.84;100.00;101964.19;4994717;28;19921;-75
2023/06/27 01:03:30;;;;;;;;;;;;;;;13.82;100.00;101964.28;4997580;28;19925;-75
2023/06/27 01:05:55;;;;;;;;;;;;;;;13.83;100.00;101965.16;4996098;28;20020;-75
2023/06/27 01:08:26;;;;;;;;;;;;;;;13.87;100.00;101974.75;5014267;28;19926;-75
2023/06/27 01:11:14;;;;;;;;;;;;;;;13.93;100.00;101968.88;5000376;28;19922;-75
2023/06/27 01:13:40;;;;;;;;;;;;;;;14.01;100.00;101965.63;4995335;28;20007;-75
2023/06/27 01:16:05;;;;;;;;;;;;;;;14.04;100.00;101970.78;5010629;28;19931;-75
2023/06/27 01:18:31;;;;;;;;;;;;;;;14.07;100.00;101963.31;4984729;28;20015;-75
2023/06/27 01:20:58;;;;;;;;;;;;;;;14.13;100.00;101958.44;5012601;28;19983;-75
2023/06/27 01:23:32;;;;;;;;;;;;;;;14.16;100.00;101960.91;4993022;28;20467;-75
2023/06/27 01:26:04;;;;;;;;;;;;;;;14.21;100.00;101959.59;5009174;28;19925;-75
2023/06/27 01:28:30;;;;;;;;;;;;;;;14.26;100.00;101959.22;4996593;28;19933;-75
2023/06/27 01:30:55;;;;;;;;;;;;;;;14.30;100.00;101960.72;5009762;28;19925;-76
2023/06/27 01:33:27;;;;;;;;;;;;;;;14.29;100.00;101953.59;4990549;28;19922;-75
2023/06/27 01:36:04;;;;;;;;;;;;;;;14.25;100.00;101954.81;5012046;28;19921;-75
2023/06/27 01:38:50;;;;;;;;;;;;;;;14.31;100.00;101951.66;5010575;28;20380;-75
2023/06/27 01:41:16;;;;;;;;;;;;;;;14.35;100.00;101955.84;4981852;28;19925;-75
2023/06/27 01:43:42;;;;;;;;;;;;;;;14.36;100.00;101957.56;5011979;28;20334;-75
2023/06/27 01:46:08;;;;;;;;;;;;;;;14.39;100.00;101954.63;4995550;28;19921;-75
2023/06/27 01:48:33;;;;;;;;;;;;;;;14.47;100.00;101959.44;4994890;28;20307;-75
2023/06/27 01:50:58;;;;;;;;;;;;;;;14.48;100.00;101957.59;4979643;28;20966;-75
2023/06/27 01:53:23;;;;;;;;;;;;;;;14.56;100.00;101957.88;5008740;28;19922;-75
2023/06/27 01:55:49;;;;;;;;;;;;;;;14.57;100.00;101947.94;4993205;28;19921;-75
2023/06/27 01:58:14;;;;;;;;;;;;;;;14.59;100.00;101945.94;4997900;28;19953;-75
2023/06/27 02:00:39;;;;;;;;;;;;;;;14.62;100.00;101940.31;4994517;28;19921;-76
2023/06/27 02:03:05;;;;;;;;;;;;;;;14.59;100.00;101945.94;4995405;28;19925;-76
2023/06/27 02:05:30;;;;;;;;;;;;;;;14.62;100.00;101949.28;4994114;28;20274;-76
2023/06/27 02:07:55;;;;;;;;;;;;;;;14.67;100.00;101943.50;4994392;28;20048;-76
2023/06/27 02:10:21;;;;;;;;;;;;;;;14.73;100.00;101944.91;5009294;28;20554;-75
2023/06/27 02:12:46;;;;;;;;;;;;;;;14.81;100.00;101939.75;5011702;28;19967;-75
2023/06/27 02:15:12;;;;;;;;;;;;;;;14.89;100.00;101945.44;4993682;28;19955;-76
2023/06/27 02:17:37;;;;;;;;;;;;;;;14.92;100.00;101945.19;4997820;28;19932;-75
2023/06/27 02:20:03;;;;;;;;;;;;;;;14.91;100.00;101946.19;5012738;28;19922;-75
2023/06/27 02:22:29;;;;;;;;;;;;;;;14.85;100.00;101941.25;4997135;28;20326;-75
2023/06/27 02:24:54;;;;;;;;;;;;;;;14.82;100.00;101945.06;5010428;28;19922;-75
2023/06/27 02:27:19;;;;;;;;;;;;;;;14.85;100.00;101947.50;5011810;28;19991;-75
2023/06/27 02:29:44;;;;;;;;;;;;;;;14.89;100.00;101941.84;4995172;28;20237;-76
2023/06/27 02:32:09;;;;;;;;;;;;;;;14.89;100.00;101940.03;5013451;28;20036;-75
2023/06/27 02:34:35;;;;;;;;;;;;;;;14.89;100.00;101944.56;5011971;28;19925;-76
2023/06/27 02:37:00;;;;;;;;;;;;;;;14.84;100.00;101934.97;5011167;28;20345;-76
2023/06/27 02:39:25;;;;;;;;;;;;;;;14.78;100.00;101923.78;4994357;28;20344;-76
2023/06/27 02:41:50;;;;;;;;;;;;;;;14.74;100.00;101927.69;5013344;28;20543;-76
2023/06/27 02:44:16;;;;;;;;;;;;;;;14.74;100.00;101925.88;5017682;28;20462;-76
2023/06/27 02:46:41;;;;;;;;;;;;;;;14.69;100.00;101920.84;5011327;28;19925;-75
2023/06/27 02:49:06;;;;;;;;;;;;;;;14.77;100.00;101932.88;4994263;28;19960;-75
2023/06/27 02:51:31;;;;;;;;;;;;;;;14.81;100.00;101926.25;4990244;28;19926;-76
2023/06/27 02:53:56;;;;;;;;;;;;;;;14.75;100.00;101933.00;5010090;28;19952;-75
2023/06/27 02:56:22;;;;;;;;;;;;;;;14.75;100.00;101932.13;4995036;28;19965;-76
2023/06/27 02:58:47;;;;;;;;;;;;;;;14.74;100.00;101928.59;5012169;28;20055;-75
2023/06/27 03:01:13;;;;;;;;;;;;;;;14.73;100.00;101934.09;5011326;28;19921;-75
2023/06/27 03:03:38;;;;;;;;;;;;;;;14.70;100.00;101933.34;4992619;28;19932;-76
2023/06/27 03:06:08;;;;;;;;;;;;;;;14.64;100.00;101936.53;5008156;28;19922;-76
2023/06/27 03:08:34;;;;;;;;;;;;;;;14.53;100.00;101931.06;4993883;28;19925;-76
2023/06/27 03:10:59;;;;;;;;;;;;;;;14.43;100.00;101933.63;4990815;28;19971;-76
2023/06/27 03:13:24;;;;;;;;;;;;;;;14.38;100.00;101938.53;4993480;28;19929;-76
2023/06/27 03:15:49;;;;;;;;;;;;;;;14.40;100.00;101940.16;4992481;28;19921;-76
2023/06/27 03:18:14;;;;;;;;;;;;;;;14.37;100.00;101939.50;4996401;28;19983;-76
2023/06/27 03:20:40;;;;;;;;;;;;;;;14.28;100.00;101937.53;5013725;28;19929;-76
2023/06/27 03:23:05;;;;;;;;;;;;;;;14.24;100.00;101944.97;4991799;28;20036;-75
2023/06/27 03:25:30;;;;;;;;;;;;;;;14.37;100.00;101940.38;4995877;28;19964;-75
2023/06/27 03:27:55;;;;;;;;;;;;;;;14.39;100.00;101932.13;4995060;28;20036;-76
2023/06/27 03:30:20;;;;;;;;;;;;;;;14.47;100.00;101945.94;4993751;28;19956;-75
2023/06/27 03:32:46;;;;;;;;;;;;;;;14.44;100.00;101943.47;4991359;28;19926;-76
2023/06/27 03:35:11;;;;;;;;;;;;;;;14.42;100.00;101937.31;5010058;28;20446;-76
2023/06/27 03:37:36;;;;;;;;;;;;;;;14.39;100.00;101938.41;4992960;28;20358;-76
2023/06/27 03:40:03;;;;;;;;;;;;;;;14.44;100.00;101940.75;4987476;28;20386;-76
2023/06/27 03:42:28;;;;;;;;;;;;;;;14.36;100.00;101948.56;4995593;28;20426;-76
2023/06/27 03:44:53;;;;;;;;;;;;;;;14.35;100.00;101944.16;4994650;28;19925;-76
2023/06/27 03:47:18;;;;;;;;;;;;;;;14.35;100.00;101945.03;4994608;28;20347;-76
2023/06/27 03:49:44;;;;;;;;;;;;;;;14.35;100.00;101936.94;4993224;28;19941;-76
2023/06/27 03:52:10;;;;;;;;;;;;;;;14.39;100.00;101943.81;4995815;28;20039;-76
2023/06/27 03:54:35;;;;;;;;;;;;;;;14.44;100.00;101951.56;5004834;28;20370;-76
2023/06/27 03:57:00;;;;;;;;;;;;;;;14.56;100.00;101941.66;4988611;28;19944;-75
2023/06/27 03:59:25;;;;;;;;;;;;;;;14.68;100.00;101950.66;4988989;28;20366;-75
2023/06/27 04:01:51;;;;;;;;;;;;;;;14.81;100.00;101946.06;5005944;28;19971;-76
2023/06/27 04:04:16;;;;;;;;;;;;;;;14.90;100.00;101947.16;4984795;28;19926;-76
2023/06/27 04:06:41;;;;;;;;;;;;;;;15.00;100.00;101945.44;4988611;28;20521;-76
2023/06/27 04:09:06;;;;;;;;;;;;;;;15.02;100.00;101945.34;4989017;28;19965;-75
2023/06/27 04:11:32;;;;;;;;;;;;;;;15.04;100.00;101959.59;4990508;28;19927;-76
2023/06/27 04:13:59;;;;;;;;;;;;;;;14.94;100.00;101948.66;4985490;28;20341;-75
2023/06/27 04:16:24;;;;;;;;;;;;;;;14.99;100.00;101953.69;4990791;28;19921;-75
2023/06/27 04:18:49;;;;;;;;;;;;;;;15.02;100.00;101949.88;4994078;28;19929;-76
2023/06/27 04:21:15;;;;;;;;;;;;;;;15.02;100.00;101950.75;4992521;28;20133;-75
2023/06/27 04:23:40;;;;;;;;;;;;;;;14.96;100.00;101945.81;4990947;28;19964;-75
2023/06/27 04:26:07;;;;;;;;;;;;;;;14.96;100.00;101946.66;4994668;28;19964;-75
2023/06/27 04:28:32;;;;;;;;;;;;;;;14.95;100.00;101947.66;5007427;28;20327;-75
2023/06/27 04:30:58;;;;;;;;;;;;;;;14.96;100.00;101954.75;5006824;28;19921;-75
2023/06/27 04:33:23;;;;;;;;;;;;;;;14.99;100.00;101948.28;4989862;28;19964;-75
2023/06/27 04:35:48;;;;;;;;;;;;;;;15.04;100.00;101947.91;4992137;28;20144;-75
2023/06/27 04:38:14;;;;;;;;;;;;;;;15.05;100.00;101944.22;4990391;28;20003;-75
2023/06/27 04:40:39;;;;;;;;;;;;;;;14.78;100.00;101929.19;4992087;28;19982;-75
2023/06/27 04:43:04;;;;;;;;;;;;;;;14.96;100.00;101943.09;4988657;28;21489;-75
2023/06/27 04:45:29;;;;;;;;;;;;;;;14.87;100.00;101952.81;4991232;28;19922;-75
2023/06/27 04:47:55;;;;;;;;;;;;;;;14.91;100.00;101950.72;4995849;28;19926;-75
2023/06/27 04:50:20;;;;;;;;;;;;;;;14.90;100.00;101957.09;5011862;28;19932;-75
2023/06/27 04:52:45;;;;;;;;;;;;;;;14.93;100.00;101955.03;4995541;28;20153;-75
2023/06/27 04:55:13;;;;;;;;;;;;;;;14.95;100.00;101963.91;5013385;28;20455;-75
2023/06/27 04:57:38;;;;;;;;;;;;;;;14.96;100.00;101954.75;5015106;28;19925;-75
2023/06/27 05:00:05;;;;;;;;;;;;;;;15.00;100.00;101958.13;5000150;28;20003;-75
2023/06/27 05:02:31;;;;;;;;;;;;;;;15.05;100.00;101965.84;4995589;28;19925;-75
2023/06/27 05:04:56;;;;;;;;;;;;;;;15.05;100.00;101964.03;4998564;28;19972;-75
2023/06/27 05:07:21;;;;;;;;;;;;;;;15.06;100.00;101960.34;4997867;28;19965;-75
2023/06/27 05:09:46;;;;;;;;;;;;;;;15.10;100.00;101953.69;4994978;28;20060;-75
2023/06/27 05:12:11;;;;;;;;;;;;;;;15.18;100.00;101963.91;5016543;28;19918;-75
2023/06/27 05:14:37;;;;;;;;;;;;;;;15.22;100.00;101965.38;4979676;28;19959;-75
2023/06/27 05:17:02;;;;;;;;;;;;;;;15.21;100.00;101966.38;5015264;28;19922;-75
2023/06/27 05:19:27;;;;;;;;;;;;;;;14.99;100.00;101937.47;5003742;28;19926;-75
2023/06/27 05:21:52;;;;;;;;;;;;;;;15.11;100.00;101960.81;4998767;28;19921;-75
2023/06/27 05:24:18;;;;;;;;;;;;;;;15.19;100.00;101962.03;5011632;28;19921;-75
2023/06/27 05:26:43;;;;;;;;;;;;;;;15.12;100.00;101962.53;4998362;28;19921;-76
2023/06/27 05:29:08;;;;;;;;;;;;;;;15.16;100.00;101960.47;5014893;28;19968;-75
2023/06/27 05:31:33;;;;;;;;;;;;;;;15.24;100.00;101957.13;4998861;28;20004;-75
2023/06/27 05:33:59;;;;;;;;;;;;;;;15.34;100.00;101952.72;5014987;28;19966;-75
2023/06/27 05:36:24;;;;;;;;;;;;;;;15.42;100.00;101962.91;5003180;28;20006;-76
2023/06/27 05:38:49;;;;;;;;;;;;;;;15.53;100.00;101957.47;5016526;28;20291;-74
2023/06/27 05:41:18;;;;;;;;;;;;;;;15.61;100.00;101967.72;5015017;28;19922;-75
2023/06/27 05:43:43;;;;;;;;;;;;;;;15.68;100.00;101968.06;5011755;28;20306;-75
2023/06/27 05:46:08;;;;;;;;;;;;;;;15.71;100.00;101968.66;5013170;28;20134;-75
2023/06/27 05:48:33;;;;;;;;;;;;;;;15.79;100.00;101967.16;4993571;28;19925;-75
2023/06/27 05:50:59;;;;;;;;;;;;;;;15.89;100.00;101963.59;5012768;28;19964;-75
2023/06/27 05:53:24;;;;;;;;;;;;;;;16.00;100.00;101962.72;5012738;28;19964;-75
2023/06/27 05:55:49;;;;;;;;;;;;;;;16.11;100.00;101955.56;4994228;28;19921;-73
2023/06/27 05:58:14;;;;;;;;;;;;;;;16.18;100.00;101963.03;5011106;28;20386;-75
2023/06/27 06:00:39;;;;;;;;;;;;;;;16.32;100.00;101961.88;4992580;28;20655;-74
2023/06/27 06:03:05;;;;;;;;;;;;;;;16.47;100.00;101961.53;4980147;28;20399;-74
2023/06/27 06:05:30;;;;;;;;;;;;;;;16.49;100.00;101965.84;5009087;28;20450;-73
2023/06/27 06:07:55;;;;;;;;;;;;;;;16.59;100.00;101967.75;5012073;28;19960;-74
2023/06/27 06:10:21;;;;;;;;;;;;;;;16.73;100.00;101956.59;4996856;28;20008;-73
2023/06/27 06:12:47;;;;;;;;;;;;;;;16.86;100.00;101961.81;5011423;28;20177;-74
2023/06/27 06:15:12;;;;;;;;;;;;;;;16.95;100.00;101968.28;5013892;28;20291;-74
2023/06/27 06:17:37;;;;;;;;;;;;;;;17.02;100.00;101966.78;5018516;28;20274;-74
2023/06/27 06:20:09;;;;;;;;;;;;;;;17.14;100.00;101958.56;4995644;28;19965;-75
2023/06/27 06:22:35;;;;;;;;;;;;;;;17.33;100.00;101958.66;5019271;28;19921;-74
2023/06/27 06:25:00;;;;;;;;;;;;;;;17.39;100.00;101954.53;5010992;28;19928;-73
2023/06/27 06:27:25;;;;;;;;;;;;;;;17.54;100.00;101955.84;5009870;28;20186;-73
2023/06/27 06:29:51;;;;;;;;;;;;;;;17.68;100.00;101957.31;5009553;28;20015;-74
2023/06/27 06:32:16;;;;;;;;;;;;;;;17.82;100.00;101961.50;4996137;28;19925;-73
2023/06/27 06:34:41;;;;;;;;;;;;;;;17.78;100.00;101949.19;4990892;28;20253;-74
2023/06/27 06:37:07;;;;;;;;;;;;;;;17.98;100.00;101963.69;5011765;28;20016;-73
2023/06/27 06:39:33;;;;;;;;;;;;;;;18.08;100.00;101969.13;4993973;28;19922;-73
2023/06/27 06:41:58;;;;;;;;;;;;;;;18.25;100.00;101972.19;4999019;28;19928;-74
2023/06/27 06:44:23;;;;;;;;;;;;;;;18.40;100.00;101976.16;5014101;28;19929;-73
2023/06/27 06:46:48;;;;;;;;;;;;;;;18.52;100.00;101976.03;5009334;28;19976;-74
2023/06/27 06:49:14;;;;;;;;;;;;;;;18.73;100.00;101981.28;4995333;28;20500;-73
2023/06/27 06:51:39;;;;;;;;;;;;;;;18.85;100.00;101981.97;4999354;28;20457;-74
2023/06/27 06:54:04;;;;;;;;;;;;;;;18.97;100.00;101980.84;4992362;28;19961;-74
2023/06/27 06:56:29;;;;;;;;;;;;;;;19.07;100.00;101986.25;4995566;28;19929;-74
2023/06/27 06:58:55;;;;;;;;;;;;;;;19.14;100.00;101978.34;4998476;28;19929;-74
2023/06/27 07:01:20;;;;;;;;;;;;;;;19.32;100.00;101976.59;4997956;28;20502;-73
2023/06/27 07:03:45;;;;;;;;;;;;;;;19.41;100.00;101988.44;4996215;28;21652;-73
2023/06/27 07:06:11;;;;;;;;;;;;;;;19.54;100.00;101985.38;4997712;28;19929;-73
2023/06/27 07:08:36;;;;;;;;;;;;;;;19.66;100.00;101983.28;4996761;28;19960;-75
2023/06/27 07:11:01;;;;;;;;;;;;;;;19.66;100.00;101982.41;5010339;28;19995;-73
2023/06/27 07:13:26;;;;;;;;;;;;;;;19.80;100.00;101981.91;5009252;28;19968;-73
2023/06/27 07:15:52;;;;;;;;;;;;;;;19.78;100.00;101982.06;4995582;28;20389;-74
2023/06/27 07:18:18;;;;;;;;;;;;;;;19.97;100.00;101982.13;5002158;28;19947;-73
2023/06/27 07:20:43;;;;;;;;;;;;;;;20.07;100.00;101977.47;5010061;28;19967;-73
2023/06/27 07:23:08;;;;;;;;;;;;;;;20.19;100.00;101978.94;4997956;28;20028;-73
2023/06/27 07:25:35;;;;;;;;;;;;;;;20.11;100.00;101973.44;4995432;28;19929;-74
2023/06/27 07:28:01;;;;;;;;;;;;;;;20.22;100.00;101977.78;4997543;28;20020;-74
2023/06/27 07:30:26;;;;;;;;;;;;;;;20.23;100.00;101966.72;4991880;28;20471;-73
2023/06/27 07:32:51;;;;;;;;;;;;;;;20.32;100.00;101977.72;4993535;28;20442;-74
2023/06/27 07:35:16;;;;;;;;;;;;;;;20.42;100.00;101972.16;4994208;28;19936;-74
2023/06/27 07:37:42;;;;;;;;;;;;;;;20.52;100.00;101975.69;4996661;28;21058;-75
2023/06/27 07:40:07;;;;;;;;;;;;;;;20.63;100.00;101975.41;4994267;28;19921;-74
2023/06/27 07:42:33;;;;;;;;;;;;;;;20.73;95.93;101971.72;4997548;28;19956;-75
2023/06/27 07:44:58;;;;;;;;;;;;;;;20.76;92.26;101976.88;4993742;28;19927;-74
2023/06/27 07:47:23;;;;;;;;;;;;;;;20.80;91.20;101978.28;5010613;28;19932;-75
2023/06/27 07:49:49;;;;;;;;;;;;;;;20.84;81.70;101979.69;5012122;28;20025;-74
2023/06/27 07:52:14;;;;;;;;;;;;;;;20.91;87.71;101972.56;4998372;28;19964;-74
2023/06/27 07:54:39;;;;;;;;;;;;;;;21.04;90.02;101971.28;4998923;28;20059;-74
2023/06/27 07:57:05;;;;;;;;;;;;;;;21.10;82.88;101967.91;4998961;28;20249;-75
2023/06/27 07:59:30;;;;;;;;;;;;;;;21.08;83.27;101965.34;4998542;28;19921;-74
2023/06/27 08:01:55;;;;;;;;;;;;;;;20.96;85.46;101972.06;5001197;28;19922;-75
2023/06/27 08:04:21;;;;;;;;;;;;;;;21.02;82.72;101967.88;4999987;28;19921;-75
2023/06/27 08:06:46;;;;;;;;;;;;;;;21.00;83.28;101970.75;5014631;28;19925;-74
2023/06/27 08:09:11;;;;;;;;;;;;;;;21.07;83.25;101958.16;5000706;28;19921;-74
2023/06/27 08:11:36;;;;;;;;;;;;;;;21.33;82.36;101959.13;5008970;28;19931;-75
2023/06/27 08:14:02;;;;;;;;;;;;;;;21.40;81.33;101955.59;5012389;28;19929;-76
2023/06/27 08:16:27;;;;;;;;;;;;;;;21.25;79.78;101955.38;5013803;28;19920;-75
2023/06/27 08:18:52;;;;;;;;;;;;;;;21.30;79.00;101952.13;5016475;28;19925;-76
2023/06/27 08:21:17;;;;;;;;;;;;;;;21.60;77.51;101949.84;5014556;28;19960;-75
2023/06/27 08:23:43;;;;;;;;;;;;;;;21.86;77.33;101959.88;5002070;28;20119;-73
2023/06/27 08:26:12;;;;;;;;;;;;;;;21.99;72.58;101960.22;5011207;28;19921;-75
2023/06/27 08:28:37;;;;;;;;;;;;;;;22.00;71.25;101955.63;5013939;28;20031;-76
2023/06/27 08:31:03;;;;;;;;;;;;;;;22.04;70.26;101957.00;4996643;28;19922;-75
2023/06/27 08:33:28;;;;;;;;;;;;;;;21.67;70.50;101955.53;5011376;28;19921;-74
2023/06/27 08:35:54;;;;;;;;;;;;;;;21.68;71.26;101962.72;5014465;28;20256;-75
2023/06/27 08:38:20;;;;;;;;;;;;;;;21.82;71.24;101955.75;4997021;28;20406;-76
2023/06/27 08:40:45;;;;;;;;;;;;;;;21.99;70.45;101959.38;5015234;28;19998;-75
2023/06/27 08:43:10;;;;;;;;;;;;;;;21.93;71.12;101955.44;5013969;28;20718;-76
2023/06/27 08:45:39;;;;;;;;;;;;;;;21.94;72.54;101956.28;5011317;28;20421;-76
2023/06/27 08:48:08;;;;;;;;;;;;;;;21.93;70.14;101946.38;5014957;28;19937;-76
2023/06/27 08:50:39;;;;;;;;;;;;;;;21.66;69.36;101946.50;4993036;28;20466;-76
2023/06/27 08:53:04;;;;;;;;;;;;;;;21.56;72.71;101940.28;5015115;28;20295;-73
2023/06/27 08:55:33;;;;;;;;;;;;;;;21.57;75.11;101942.88;5010135;28;19968;-77
2023/06/27 08:57:59;;;;;;;;;;;;;;;21.70;69.89;101945.16;4999302;28;19921;-74
2023/06/27 09:00:25;;;;;;;;;;;;;;;21.90;72.05;101947.59;5014927;28;19924;-74
2023/06/27 09:02:50;;;;;;;;;;;;;;;21.72;76.23;101943.09;4995941;28;20451;-76
2023/06/27 09:05:16;;;;;;;;;;;;;;;21.75;71.83;101947.38;5013030;28;19933;-71
2023/06/27 09:07:41;;;;;;;;;;;;;;;21.78;71.14;101944.31;5015989;28;20014;-71
2023/06/27 09:10:08;;;;;;;;;;;;;;;21.72;69.86;101944.97;4997852;28;20055;-72
2023/06/27 09:12:33;;;;;;;;;;;;;;;21.63;72.09;101944.09;5014047;28;19917;-72
2023/06/27 09:14:58;;;;;;;;;;;;;;;21.41;73.63;101949.13;5000119;28;19933;-74
2023/06/27 09:17:23;;;;;;;;;;;;;;;21.44;69.17;101961.59;4998108;28;20027;-73
2023/06/27 09:19:49;;;;;;;;;;;;;;;21.46;68.83;101958.66;5001922;28;19917;-75
2023/06/27 09:22:15;;;;;;;;;;;;;;;21.40;70.26;101952.00;5000005;28;19956;-73
2023/06/27 09:24:41;;;;;;;;;;;;;;;21.32;67.46;101961.03;5013284;28;19964;-75
2023/06/27 09:27:14;;;;;;;;;;;;;;;21.21;70.18;101936.72;5014090;28;19972;-74
2023/06/27 09:29:39;;;;;;;;;;;;;;;21.31;69.51;101953.00;5012273;28;19969;-74
2023/06/27 09:32:08;;;;;;;;;;;;;;;21.41;69.18;101962.78;5015122;28;20433;-75
2023/06/27 09:34:37;;;;;;;;;;;;;;;21.38;68.85;101957.63;4995417;28;19921;-76
2023/06/27 09:37:02;;;;;;;;;;;;;;;21.35;67.49;101957.09;4997739;28;19990;-73
2023/06/27 09:39:28;;;;;;;;;;;;;;;21.31;65.82;101955.72;5012784;28;19925;-75
2023/06/27 09:41:53;;;;;;;;;;;;;;;21.32;65.07;101961.03;5013743;28;19921;-76
2023/06/27 09:44:19;;;;;;;;;;;;;;;21.49;65.48;101969.28;5014045;28;20387;-73
2023/06/27 09:46:45;;;;;;;;;;;;;;;21.67;63.99;101958.28;5019016;28;20360;-72
2023/06/27 09:49:11;;;;;;;;;;;;;;;21.77;64.18;101959.00;5014429;28;20670;-73
2023/06/27 09:51:36;;;;;;;;;;;;;;;21.91;64.54;101968.44;4993967;28;20398;-74
2023/06/27 09:54:02;;;;;;;;;;;;;;;21.89;64.38;101967.75;4997019;28;19922;-73
2023/06/27 09:56:30;;;;;;;;;;;;;;;22.11;62.88;101974.47;5012216;28;19964;-73
2023/06/27 09:58:56;;;;;;;;;;;;;;;22.10;59.44;101961.81;4997718;28;20455;-73
2023/06/27 10:01:22;;;;;;;;;;;;;;;21.73;61.40;101955.72;5009633;28;19922;-73
2023/06/27 10:03:49;;;;;;;;;;;;;;;21.44;62.14;101972.50;5005774;28;19983;-74
2023/06/27 10:06:14;;;;;;;;;;;;;;;21.22;63.16;101968.47;4995409;28;19932;-75
2023/06/27 10:08:40;;;;;;;;;;;;;;;21.34;63.45;101974.50;4998644;28;19933;-74
2023/06/27 10:11:05;;;;;;;;;;;;;;;21.42;66.65;101980.00;4996126;28;19931;-76
2023/06/27 10:13:30;;;;;;;;;;;;;;;21.58;65.15;101976.50;4995303;28;19924;-75
2023/06/27 10:15:56;;;;;;;;;;;;;;;21.74;66.64;101970.25;5012808;28;19917;-76
2023/06/27 10:18:21;;;;;;;;;;;;;;;21.65;66.08;101966.66;4999255;28;19957;-76
2023/06/27 10:20:46;;;;;;;;;;;;;;;21.53;65.88;101973.41;4996747;28;19922;-76
2023/06/27 10:23:11;;;;;;;;;;;;;;;21.67;67.54;101970.06;5009993;28;19944;-75
2023/06/27 10:25:37;;;;;;;;;;;;;;;21.84;66.47;101959.19;4998535;28;20024;-75
2023/06/27 10:28:03;;;;;;;;;;;;;;;21.79;67.85;101967.91;5014174;28;20554;-76
2023/06/27 10:30:29;;;;;;;;;;;;;;;21.94;65.24;101968.09;5009574;28;19925;-76
2023/06/27 10:33:21;;;;;;;;;;;;;;;22.13;64.69;101969.66;4995505;28;19995;-75
2023/06/27 10:35:54;;;;;;;;;;;;;;;22.23;61.70;101972.25;5012450;28;19921;-75
2023/06/27 10:38:19;;;;;;;;;;;;;;;22.24;63.76;101973.97;5007046;28;20024;-76
2023/06/27 10:40:53;;;;;;;;;;;;;;;22.49;60.26;101974.00;4996401;28;19959;-73
2023/06/27 10:43:34;;;;;;;;;;;;;;;22.62;61.00;101971.59;4992145;28;19921;-73
2023/06/27 10:46:09;;;;;;;;;;;;;;;22.70;60.08;101978.09;4993363;28;19926;-75
2023/06/27 10:48:49;;;;;;;;;;;;;;;22.60;61.84;101970.91;5007667;28;21091;-74
2023/06/27 10:51:19;;;;;;;;;;;;;;;22.69;63.86;101971.75;5010243;28;20001;-73
2023/06/27 10:54:04;;;;;;;;;;;;;;;22.68;58.98;101966.44;4994958;28;19944;-75
2023/06/27 10:56:29;;;;;;;;;;;;;;;22.41;58.00;101966.59;4992273;28;19921;-76
2023/06/27 10:58:56;;;;;;;;;;;;;;;22.47;59.28;101962.38;5010299;28;19959;-76
2023/06/27 11:01:21;;;;;;;;;;;;;;;22.50;59.07;101961.16;5012490;28;19921;-75
2023/06/27 11:03:56;;;;;;;;;;;;;;;22.51;58.09;101957.41;4994355;28;19932;-74
2023/06/27 11:06:23;;;;;;;;;;;;;;;22.64;57.52;101940.44;4992677;28;20372;-73
2023/06/27 11:08:54;;;;;;;;;;;;;;;22.97;57.56;101956.81;4996610;28;19925;-74
2023/06/27 11:11:19;;;;;;;;;;;;;;;23.28;55.91;101934.16;4993974;28;19922;-76
2023/06/27 11:13:45;;;;;;;;;;;;;;;23.66;57.57;101958.97;5011180;28;19971;-73
2023/06/27 11:16:11;;;;;;;;;;;;;;;23.76;55.74;101956.00;4994772;28;19973;-75
2023/06/27 11:18:36;;;;;;;;;;;;;;;23.66;54.32;101954.38;5008917;28;20403;-76
2023/06/27 11:21:02;;;;;;;;;;;;;;;23.60;56.02;101956.94;5012707;28;19960;-73
2023/06/27 11:23:28;;;;;;;;;;;;;;;23.48;52.69;101954.63;4994254;28;19983;-74
2023/06/27 11:25:54;;;;;;;;;;;;;;;23.44;55.58;101956.00;4995285;28;19921;-74
2023/06/27 11:28:20;;;;;;;;;;;;;;;23.34;56.25;101964.44;4995690;28;20347;-74
2023/06/27 11:30:45;;;;;;;;;;;;;;;23.53;55.86;101962.28;5007282;28;19921;-73
2023/06/27 11:33:13;;;;;;;;;;;;;;;23.34;56.18;101969.91;4990782;28;19922;-77
2023/06/27 11:35:40;;;;;;;;;;;;;;;23.34;52.90;101958.09;4995446;28;19952;-73
2023/06/27 11:38:05;;;;;;;;;;;;;;;23.16;53.82;101959.16;5008182;28;20035;-73
2023/06/27 11:40:30;;;;;;;;;;;;;;;23.06;52.19;101964.84;4992383;28;20028;-73
2023/06/27 11:43:15;;;;;;;;;;;;;;;23.09;54.56;101960.03;4991778;28;19922;-74
2023/06/27 11:45:43;;;;;;;;;;;;;;;23.19;53.39;101955.19;4991989;28;20384;-73
2023/06/27 11:48:08;;;;;;;;;;;;;;;23.33;56.62;101950.91;5008543;28;20394;-73
2023/06/27 11:50:34;;;;;;;;;;;;;;;24.22;55.82;101950.59;4992956;28;19921;-74
2023/06/27 11:53:00;;;;;;;;;;;;;;;24.54;50.72;101956.00;4995762;28;20238;-73
2023/06/27 11:55:26;;;;;;;;;;;;;;;24.37;47.77;101953.38;4991033;28;19952;-77
2023/06/27 11:57:51;;;;;;;;;;;;;;;24.03;48.83;101953.81;5008669;28;20100;-75
2023/06/27 12:00:17;;;;;;;;;;;;;;;23.99;47.23;101957.94;4994694;28;19944;-75
2023/06/27 12:02:45;;;;;;;;;;;;;;;24.08;47.76;101955.00;4992185;28;20007;-75
2023/06/27 12:05:15;;;;;;;;;;;;;;;24.10;50.23;101963.03;4992652;28;20012;-74
2023/06/27 12:07:41;;;;;;;;;;;;;;;24.79;49.17;101961.28;5007164;28;20312;-74
2023/06/27 12:10:06;;;;;;;;;;;;;;;24.90;50.33;101951.72;4995070;28;19921;-74
2023/06/27 12:12:40;;;;;;;;;;;;;;;24.71;48.57;101956.72;5007295;28;19976;-74
2023/06/27 12:15:24;;;;;;;;;;;;;;;25.14;48.35;101945.94;4991040;28;20052;-74
2023/06/27 12:17:56;;;;;;;;;;;;;;;25.20;46.67;101947.06;5012310;28;20032;-73
2023/06/27 12:20:23;;;;;;;;;;;;;;;25.48;44.84;101942.81;4990650;28;20095;-75
2023/06/27 12:22:49;;;;;;;;;;;;;;;26.65;42.97;101943.59;4992683;28;20324;-74
2023/06/27 12:25:14;;;;;;;;;;;;;;;27.63;43.19;101941.84;4996189;28;20102;-73